x

8452944 - Conimicut Light, Ri (cptr1) Weather Station

12:54 - Mon 1st May 2017 All times are EDT. -4 hours from GMT.

  • Wind
    14mph, 15mph gusts
  • Sea Temp 54°f
  • Air Temp 47°f
  • Sea Pressure 1022.6mb
  • 8452944 - Conimicut Light, Ri
  • 8452944 - Conimicut Light, Ri

More Historic Weather Station data

Upgrade to MSW Pro to gain access to the past 30 days of data for over 8000 Wavebouys and Weather Stations around the globe.

Join Pro

Comparision Forecast

View Surf forecast
   
lun. 05/01 12:54 14 15 mph 1022.6mb 54f 47f
12:48 10 14 mph 1022.9mb 54f 47f
12:42 11 13 mph 1023mb 54f 47f
12:36 9 11 mph 1023.1mb 54f 47f
12:30 9 10 mph 1023.2mb 54f 47f
12:24 10 11 mph 1023.3mb 54f 47f
12:18 9 11 mph - - -
12:12 11 14 mph 1023.2mb 54f 47f
12:06 9 11 mph 1023.3mb 53f 47f
12:00 10 13 mph 1023.5mb 53f 47f
dim. 04/30 11:54 10 11 mph 1023.7mb 53f 47f
11:48 9 11 mph - - -
11:42 10 11 mph 1024.2mb 53f 47f
11:36 9 13 mph 1024.3mb 52f 47f
11:30 10 13 mph 1024.2mb 52f 47f
11:24 10 15 mph 1024.3mb 52f 47f
11:18 11 13 mph 1023.9mb 52f 48f
11:12 10 11 mph 1024.2mb 52f 47f
11:06 10 13 mph 1024.2mb 52f 47f
11:00 10 11 mph 1024.4mb 52f 48f
10:54 8 11 mph 1024.5mb 52f 48f
10:48 8 10 mph 1024.4mb 52f 47f
10:42 9
mph
1024.4mb 52f 48f
10:36 8 9 mph 1024.6mb 52f 47f
10:30 9 11 mph 1024.6mb 51f 47f
10:24 8 10 mph 1024.7mb 50f 47f
10:18 9 10 mph 1024.7mb 50f 48f
10:12 7 10 mph 1025mb 50f 47f
10:06 7 10 mph 1025.1mb 50f 47f
10:00 10 13 mph 1024.9mb 50f 48f
9:54 11 14 mph 1024.5mb 50f 47f
9:48 10 13 mph 1024.8mb 50f 48f
9:42 11 14 mph 1024.9mb 50f 47f
9:36 11 15 mph 1024.9mb 51f 48f
9:30 13 15 mph 1024.4mb 51f 48f
9:24 14 15 mph 1024.3mb 51f 48f
9:18 8 18 mph 1024.6mb 51f 48f
9:12 17 18 mph 1023.5mb 52f 48f
9:06 14 17 mph 1024.2mb 52f 48f
9:00 13 16 mph 1024.1mb 52f 48f
8:48 13 16 mph - - -
8:42 11 14 mph 1024.6mb 53f 48f
8:36 13 17 mph 1024.6mb 53f 48f
8:30 13 15 mph 1024.6mb 53f 48f
8:24 13 15 mph 1024.5mb 53f 48f
8:18 11 14 mph 1024.6mb 54f 48f
8:12 13 15 mph 1024.6mb 54f 48f
8:06 11 14 mph 1024.5mb 54f 48f
8:00 11 13 mph 1024.6mb 54f 48f
7:48 11 14 mph 1024.5mb 54f 48f
7:42 14 15 mph 1024.5mb 54f 48f
7:36 11 14 mph 1024.4mb 54f 48f
7:00 14 16 mph 1024.5mb 52f -
6:54 13 14 mph 1024.5mb 51f 49f
6:48 11 14 mph 1024.4mb 51f 49f
6:42 11 14 mph 1024.7mb 51f 49f
6:36 10 14 mph 1024.7mb 51f 49f
6:30 11 14 mph 1024.7mb 52f 49f
6:24 10 13 mph 1024.7mb 52f 49f
6:18 11 14 mph 1024.5mb 52f 49f
6:12 14 15 mph 1024.5mb 52f 49f
6:06 11 16 mph 1024.7mb 53f 50f
6:00 13 14 mph 1024.7mb 53f 49f
5:54 13 14 mph 1024.6mb 53f 50f
5:48 11 13 mph 1024.6mb 54f 50f
5:42 11 14 mph 1024.7mb 54f 50f
5:36 14 17 mph 1024.6mb 54f 50f
5:30 13 14 mph 1024.4mb 54f 50f
5:24 11 14 mph 1024.5mb 54f 50f
5:18 11 15 mph 1024.6mb 54f 50f
5:12 13 15 mph 1024.7mb 54f 50f
5:06 13 15 mph 1024.6mb 54f 50f
5:00 14 17 mph 1024.4mb 54f 51f
4:54 15 16 mph 1024.5mb 54f 51f
4:48 14 16 mph 1024.7mb 54f 51f
4:42 14 16 mph 1024.7mb 54f 51f
4:36 13 17 mph 1024.6mb 55f 51f
4:30 14 16 mph 1024.7mb 55f 51f
4:24 15 18 mph 1024.7mb 55f 52f
4:18 18 20 mph 1024.5mb 56f 52f
4:12 17 21 mph 1024.5mb 56f 52f
4:06 17 21 mph 1024.4mb 56f 52f
4:00 20 22 mph 1024.1mb 56f 53f
3:54 16 18 mph 1024.4mb 56f 53f
3:48 16 17 mph 1024.4mb 56f 53f
3:42 17 20 mph 1024.4mb 56f 53f
3:36 17 20 mph 1024.6mb 56f 52f
3:30 18 21 mph 1024.5mb 56f 52f
3:24 18 22 mph 1024.5mb 56f 53f
3:18 20 22 mph 1024.4mb 56f 53f
3:12 21 22 mph 1024mb 56f 53f
3:06 18 22 mph 1024.1mb 56f 54f
3:00 22 24 mph 1023.9mb 55f 54f
2:54 11 20 mph 1024.2mb 55f 56f
2:48 18 21 mph 1023.7mb 55f 56f
2:42 17 20 mph 1023.5mb 55f 57f
2:36 17 18 mph 1023.7mb 55f 56f
2:30 16 18 mph 1024.1mb 55f 56f
2:24 16 17 mph 1024.6mb 55f 56f
2:18 15 17 mph 1024.7mb 55f 56f
2:12 11 14 mph 1024.8mb 55f 56f
2:06 10 11 mph 1025.2mb 55f 56f
2:00 9
mph
1025.4mb 55f 55f
1:54 7 8 mph 1025.6mb 55f 56f
1:48 6 10 mph 1025.9mb 54f 56f
1:42 6 9 mph 1025.6mb 54f 56f
1:36 6 7 mph 1025.6mb 53f 56f
1:30 5 6 mph 1025.1mb 53f 58f
1:24 6 9 mph 1025mb 53f 57f
1:18 7 10 mph 1024.8mb 53f 57f
1:12 5
mph
1024.8mb 53f 57f
1:06 6 10 mph 1025mb 54f 57f
1:00 8 9 mph 1024.6mb 53f 57f
12:54 6 8 mph 1024.8mb 53f 57f
12:48 7 10 mph 1024.7mb 53f 57f
12:42 6 8 mph 1024.8mb 52f 57f
12:36 7 9 mph 1024.7mb 52f 56f
12:30 8 11 mph 1024.7mb 52f 56f
12:24 7 10 mph 1024.9mb 52f 56f
12:18 8 14 mph 1024.9mb 52f 56f
12:12 10
mph
1024.9mb 52f 56f
12:06 9 10 mph 1024.9mb 52f 56f
12:00 8 10 mph 1025mb 52f 56f
11:54 9 11 mph 1025mb 52f 56f
11:48 10 14 mph 1025mb 51f 55f
11:42 10 14 mph 1024.8mb 51f 56f
11:36 11 16 mph 1024.7mb 51f 55f
11:30 15 18 mph 1024.4mb 51f 55f
11:24 17 21 mph 1024.3mb 51f 55f
11:18 16 20 mph 1024.3mb 52f 55f
11:12 9 14 mph 1024.3mb 52f 58f
11:06 5 6 mph 1024.4mb 52f 58f
11:00 5 6 mph 1024.6mb 52f 59f
10:54 3 6 mph 1024.8mb 52f 58f
10:48 3 6 mph 1024.7mb 51f 59f
10:42 5 10 mph 1024.7mb 51f 58f
10:36 3 6 mph 1024.8mb 51f 58f
10:30 8 9 mph 1024.8mb 51f 58f
10:24 9 10 mph 1024.8mb 51f 57f
10:18 7 13 mph 1024.9mb 51f 56f
10:12 7 11 mph 1025mb 51f 56f
10:06 8 11 mph 1024.9mb 52f 56f
10:00 11 17 mph 1025mb 52f 56f
9:54 8 14 mph 1024.9mb 52f 56f
9:48 9 11 mph 1025.1mb 52f 56f
9:42 9 13 mph 1025.2mb 52f 56f
9:36 6 13 mph 1025.3mb 52f 56f
9:30 11 14 mph 1025.1mb 52f 56f
9:24 9 13 mph 1025.1mb 52f 56f
9:18 9 13 mph 1025mb 52f 55f
9:12 10 15 mph 1025.1mb 53f 55f
9:06 14 16 mph 1025mb 54f 55f
9:00 13 16 mph 1025.1mb 54f 55f
8:48 11 17 mph 1024.9mb 54f 55f
8:42 14 16 mph 1024.7mb 55f 55f
8:36 14 15 mph 1024.6mb 55f 55f
8:30 11 14 mph 1024.6mb 55f 55f
8:24 13 14 mph 1024.4mb 55f 55f
8:18 11 15 mph - - -
8:12 14 18 mph 1024.6mb 56f 55f
8:06 15 20 mph 1024.6mb 56f 55f
8:00 16 21 mph 1024.5mb 56f 55f
7:54 17 20 mph 1024.3mb 56f 55f
7:48 16 17 mph 1024.3mb 56f 55f
7:42 14 16 mph 1024.3mb 56f 55f
7:36 11 16 mph 1024.2mb 56f 55f
7:30 16 20 mph 1024.3mb 55f 55f
7:24 18 21 mph 1024.3mb 55f 55f
7:18 17 21 mph 1024.2mb 56f 55f
7:12 15 17 mph 1024mb 56f 55f
7:06 11 15 mph 1023.9mb 56f 55f
7:00 7 10 mph 1023.9mb 56f 56f
6:54 8 11 mph 1023.5mb 56f 56f
6:48 9 13 mph 1023.4mb 56f 55f
6:42 11 14 mph 1023.4mb 56f 55f
6:36 11 14 mph 1023.2mb 56f 55f
6:30 11 14 mph 1023.3mb 56f 55f
6:24 11 16 mph 1023mb 56f 55f
6:18 15 18 mph 1022.7mb 56f 55f
6:12 17 21 mph 1022.7mb 56f 55f
6:06 15 21 mph 1022.4mb 56f 55f
6:00 10 13 mph 1022.3mb 56f 55f
5:54 9 11 mph 1022.1mb 56f 56f
5:48 10 13 mph 1021.9mb 56f 56f
5:42 8 10 mph 1021.8mb 56f 56f
5:36 8 11 mph 1021.8mb 56f 56f
5:30 10 14 mph 1021.5mb 56f 56f
5:24 11 14 mph 1021.2mb 55f 56f
5:18 11 13 mph 1021.3mb 56f 56f
5:12 11 14 mph 1021.3mb 56f 57f
5:06 14 16 mph 1021.3mb 57f 57f
5:00 14 15 mph 1021.2mb 57f 57f
4:54 11 14 mph 1021.2mb 57f 57f
4:48 13 15 mph 1021.2mb 57f 58f
4:42 11 14 mph 1021.3mb 57f 58f
4:36 14 16 mph 1021.1mb 57f 58f
4:30 14 16 mph 1020.9mb 57f 58f
4:24 13 16 mph 1020.7mb 57f 58f
4:18 13 15 mph 1020.7mb 57f 58f
4:12 13 16 mph 1020.7mb 57f 58f
4:06 14 16 mph 1020.5mb 57f 58f
4:00 15 21 mph 1020.4mb 57f 58f
3:54 17 21 mph 1020.5mb 57f 58f
3:48 16 20 mph 1020.3mb 57f 58f
3:42 16 20 mph 1020.3mb 57f 58f
3:36 17 21 mph 1020.4mb 57f 59f
3:30 16 21 mph 1020.3mb 57f 59f
3:24 18 21 mph 1020.3mb 57f 59f
3:18 16 22 mph 1020.1mb 57f 59f
3:12 18 22 mph 1020.1mb 57f 60f
3:06 20 23 mph 1020mb 57f 60f
3:00 21 24 mph 1019.8mb 57f 60f
2:54 18 23 mph 1019.7mb 57f 60f
2:48 17 23 mph 1019.9mb 57f -
2:42 16 21 mph 1020mb 57f -
2:36 20 24 mph 1019.9mb 57f -
2:30 22 26 mph 1019.6mb 57f 61f
2:24 20 22 mph 1019.5mb 57f 61f
2:18 18 21 mph 1019.6mb 57f 61f
2:12 17 22 mph 1019.5mb 57f 61f
2:06 17 22 mph 1019.4mb 57f 62f
2:00 18 20 mph 1019.3mb 57f 62f
1:54 16 22 mph 1019.1mb 57f 62f
1:48 20 23 mph 1019.1mb 57f 62f
1:42 18 22 mph 1019mb 57f 62f
1:36 20 22 mph 1018.7mb 57f 63f
1:30 17 20 mph 1018.7mb 57f 63f
1:24 17 20 mph 1018.9mb 57f 63f
1:18 17 18 mph 1018.8mb 57f 63f
1:12 18 22 mph 1018.8mb 57f 64f
1:06 16 22 mph 1018.7mb 57f 63f
1:00 20 22 mph 1018.6mb 57f 64f
12:54 20 23 mph 1018.5mb 57f 64f
12:48 18 22 mph 1018.4mb 57f 64f
12:42 17 24 mph 1018.2mb 57f 64f
12:36 20 24 mph 1018mb 57f 64f
12:30 21 24 mph 1017.9mb 57f 65f
12:24 18 21 mph 1017.9mb 57f 65f
12:18 16 21 mph 1017.9mb 57f 65f
12:12 15 17 mph 1017.8mb 57f 65f
12:06 15 16 mph 1017.8mb 57f 64f
12:00 15 17 mph 1017.6mb 56f 64f
sam. 04/29 11:54 16 20 mph 1017.5mb 56f 64f
11:48 18 22 mph 1017.4mb 56f 65f
11:42 17 20 mph 1017.2mb 56f 66f
11:36 17 22 mph 1017.2mb 55f 66f
11:30 15 24 mph 1017.1mb 54f 66f
11:24 16 21 mph 1016.9mb 54f 66f
11:18 15 18 mph 1016.9mb 54f 66f
11:12 16 22 mph 1016.8mb 54f 67f
11:06 20 24 mph 1016.9mb 54f 67f
11:00 20 26 mph 1016.8mb 54f 67f
10:54 18 24 mph 1016.7mb 53f 68f
10:48 18 26 mph 1016.7mb 53f 67f
10:42 21 25 mph 1016.9mb 52f 68f
10:36 22 26 mph 1017mb 53f 68f
10:30 21 25 mph 1016.9mb 53f 68f
10:24 18 23 mph 1017.1mb 53f 68f
10:18 20 25 mph 1016.8mb 53f 67f
10:12 25 30 mph 1016.7mb 53f 68f
10:06 28 32 mph 1016.6mb 53f 68f
10:00 28 33 mph 1016.6mb 53f 68f
9:54 26 33 mph 1016.5mb 53f 68f
9:48 24 29 mph 1016.2mb 53f 69f
9:42 24 29 mph 1016.3mb 53f 68f
9:36 26 30 mph 1016.2mb 54f 69f
9:30 22 28 mph 1016.2mb 55f 69f
9:24 24 29 mph 1016mb 55f 69f
9:18 22 31 mph 1016mb 55f 69f
9:12 21 28 mph 1015.8mb 55f 69f
9:06 23 29 mph 1015.8mb 55f 70f
9:00 20 25 mph 1015.8mb 55f 69f
8:48 22 25 mph 1015.5mb 56f 70f
8:42 20 23 mph 1015.2mb 56f 70f
8:36 20 26 mph 1015mb 56f 70f
8:30 20 24 mph 1014.7mb 56f 70f
8:24 21 25 mph 1014.6mb 56f 70f
8:18 20 23 mph 1014.4mb 56f 69f
8:12 22 26 mph 1014.2mb 56f 71f
8:06 20 26 mph 1014.2mb 57f 71f
8:00 22 26 mph 1014.3mb 57f 71f
7:54 24 26 mph 1014mb 58f 71f
7:48 21 28 mph 1013.7mb 58f 70f
7:42 24 29 mph 1013.4mb 59f 73f
7:36 24 29 mph 1013mb 59f 73f
7:30 28 30 mph 1012.7mb 59f 72f
7:24 24 32 mph 1012.8mb 59f 73f
7:18 26 31 mph 1012.9mb 59f 74f
7:12 25 32 mph 1012.6mb 59f 75f
7:06 23 28 mph 1012.4mb 59f 76f
7:00 21 26 mph 1012.3mb 59f 75f
6:48 20 24 mph 1012.4mb - -
6:42 21 25 mph 1012.2mb 59f 74f
6:36 24 28 mph 1012.1mb 59f 74f
6:30 20 25 mph 1012.1mb 59f -
6:24 28 32 mph 1012mb 59f 79f
6:18 25 29 mph 1012mb 59f 78f
6:12 16 25 mph 1012.2mb 59f 78f
6:06 23 32 mph 1012mb 59f 79f
6:00 24 31 mph 1011.8mb 59f 81f
5:48 30 33 mph 1012mb 59f 81f
5:42 20 30 mph 1011.7mb 59f 79f
5:36 26 30 mph 1011.2mb 59f 81f
5:30 20 30 mph 1010.9mb 59f 80f
5:24 18 24 mph 1011.3mb 59f -
5:18 18 22 mph 1011.1mb 59f -
5:12 20 26 mph 1011.1mb 59f -
5:06 20 25 mph 1011.1mb 58f -
5:00 17 25 mph 1011.1mb 58f -
4:54 22 28 mph 1011.2mb 57f -
4:48 25 31 mph 1011.1mb 57f -
4:42 26 31 mph 1011.3mb 57f -
4:36 25 31 mph 1011mb 56f -
4:30 23 28 mph 1010.9mb 58f -
4:24 23 30 mph 1010.7mb 58f -
4:18 24 30 mph 1010.7mb 58f -
4:12 25 31 mph 1010.6mb 58f -
4:06 21 25 mph 1010.4mb 58f -
4:00 22 25 mph 1010.5mb 58f -
3:54 14 22 mph 1010.2mb 58f -
3:48 14 18 mph 1010.1mb 58f -
3:42 11 22 mph 1010.1mb 57f -
3:36 14 21 mph 1010.2mb 57f -
3:30 9 15 mph 1010.2mb 56f 68f
3:24 14 15 mph 1010.1mb 57f 66f
3:18 15 20 mph 1010mb 57f 66f
3:12 20 22 mph 1010.2mb 57f 65f
3:06 17 22 mph 1010.3mb 57f 68f
3:00 18 21 mph 1010.4mb 57f 67f
2:54 17 20 mph 1010.4mb 57f 66f
2:48 18 21 mph 1010.4mb 57f 65f
2:42 21
mph
1010.3mb 58f 66f
2:36 18 21 mph 1010.1mb 58f 67f
2:30 17 18 mph 1010.4mb 58f 65f
2:24 18 20 mph 1010.3mb 58f 66f
2:18 17 20 mph 1010.4mb 58f 65f
2:12 17
mph
1010.4mb 58f 64f
2:06 14 15 mph 1010.6mb 57f 64f
2:00 13 14 mph 1010.8mb 57f 64f
1:54 11 13 mph 1010.8mb 56f 64f
1:48 13 15 mph 1010.9mb 56f 63f
1:42 10 11 mph 1010.8mb 56f 63f
1:36 8 9 mph 1011mb 56f 62f
1:30 10 13 mph 1011.4mb 56f 63f
1:24 13 16 mph 1011.6mb 56f 62f
1:18 16 18 mph 1011.6mb 56f 62f
1:12 18 20 mph 1011.4mb 56f 63f
1:06 18 20 mph 1011.3mb 55f 62f
1:00 18
mph
1011.5mb 55f 62f
12:54 15 20 mph 1011.8mb 55f 61f
12:48 21 22 mph 1012mb 55f 63f
12:42 20 22 mph 1012.2mb 55f 62f
12:36 18 22 mph 1012.5mb 55f 62f
12:30 22 23 mph 1012.6mb 54f 63f
12:24 22 25 mph 1012.5mb 54f 63f
12:18 24 25 mph 1012.6mb 54f 64f
12:12 23 25 mph 1012.7mb 54f 63f
12:06 20 25 mph 1013.1mb 54f 62f
12:00 25 28 mph 1013.1mb 53f 64f
11:54 25 26 mph 1013.3mb 52f 63f
11:48 11 17 mph 1013.6mb 53f 63f
11:42 13 16 mph 1013.8mb 52f 61f
11:36 15
mph
1013.9mb 53f 62f
11:30 13 14 mph 1014.1mb 52f 61f
11:24 9 11 mph 1014.4mb 53f 60f
11:18 11 13 mph 1014.6mb 53f 60f
11:12 11 14 mph 1014.6mb 52f 58f
11:06 11 14 mph 1014.7mb 52f 58f
11:00 8 9 mph 1014.7mb 52f 58f
10:54 8 10 mph 1014.7mb 52f 58f
10:48 10 11 mph 1014.7mb 52f 58f
10:42 8 9 mph 1014.9mb 54f 58f
10:36 8 9 mph 1014.8mb 54f 58f
10:30 6 7 mph 1014.8mb 54f 57f
10:24 3 8 mph 1014.9mb 53f 57f
10:18 7 11 mph 1014.9mb 53f 56f
10:12 11 13 mph 1014.9mb 53f 56f
10:06 11 13 mph 1014.9mb 53f 56f
10:00 8 9 mph 1015.1mb 53f 56f
9:54 8 9 mph 1015.1mb 54f 56f
9:48 7 8 mph 1015.1mb 54f 55f
9:42 7 10 mph 1015.1mb 54f 55f
9:36 10 13 mph 1015mb 54f 56f
9:30 10 13 mph 1015.1mb 54f 56f
9:24 8 11 mph 1015mb 54f 56f
9:18 9 13 mph 1014.8mb 53f 56f
9:12 10 13 mph 1015mb 53f 56f
9:06 9 10 mph 1014.9mb 53f 56f
9:00 10 11 mph 1014.7mb 52f 57f
8:54 6 7 mph 1014.6mb 51f 57f
8:48 6 9 mph 1014.6mb 50f 57f
8:42 8 10 mph 1014.8mb 50f 56f
8:36 9 10 mph 1014.9mb 51f 56f
8:30 9
mph
1015mb 52f 57f
8:24 7 8 mph 1015mb 53f 56f
8:18 6 8 mph 1015.3mb 53f 57f
8:12 6 7 mph 1015.4mb 54f 56f
8:06 5 6 mph 1015.5mb 55f 57f
8:00 7 9 mph 1015.3mb 55f 58f
7:54 10 15 mph 1015.4mb 55f 57f
7:48 14 17 mph 1015.5mb 55f 56f
7:42 16 17 mph 1015.4mb 55f 56f
7:36 13 15 mph 1015.7mb 55f 56f
7:30 13 15 mph 1015.8mb 55f 56f
7:24 10 11 mph 1015.5mb 55f 55f
7:18 5 6 mph 1015.4mb 55f 56f
7:12 6 14 mph 1015.4mb 55f 56f
7:06 13 14 mph 1015.2mb 55f 57f
7:00 10 14 mph 1015.1mb 55f 57f
6:54 9 15 mph 1014.9mb 55f 57f
6:48 14 16 mph 1015mb 55f 57f
6:42 13 18 mph 1015.1mb 55f 57f
6:36 11 14 mph 1015.1mb 55f 56f
6:30 13 14 mph 1015.3mb 55f 57f
6:24 8 9 mph 1015.1mb 55f 57f
6:18 3 7 mph 1015.1mb 55f 57f
6:12 8 10 mph 1015.1mb 55f 57f
6:06 10 14 mph 1014.9mb 55f 57f
6:00 11
mph
1014.2mb 55f 58f
5:54 6 9 mph 1014.8mb 55f 58f
5:48 9 10 mph 1014.9mb 55f 57f
5:42 9 13 mph 1015.1mb 55f 57f
5:36 10 11 mph 1015.5mb 55f 58f
5:30 7 10 mph 1015.6mb 56f 58f
5:24 10
mph
1015.9mb 56f 57f
5:18 8
mph
1016mb 56f 57f
5:12 8
mph
1016mb 56f 57f
5:06 6
mph
1016.2mb 56f 56f
5:00 6 8 mph 1016.3mb 56f 56f
4:54 8 10 mph 1016.1mb 56f 56f
4:48 9 10 mph 1016mb 56f 56f
4:42 9
mph
1016mb 56f 57f
4:36 8 9 mph 1016.1mb 56f 56f
4:30 9 10 mph 1016.1mb 56f 56f
4:24 9 10 mph 1016.4mb 56f 55f
4:18 9 11 mph - - -
4:12 9 10 mph 1016.3mb 56f 55f
4:06 8 9 mph 1016.3mb 56f 55f
4:00 6 7 mph 1016.3mb 56f 55f
3:54 6 8 mph 1016mb 56f 55f
3:48 9
mph
1016mb 56f 55f
3:42 8 10 mph 1016mb 56f 55f
3:36 10 11 mph 1015.8mb 56f 56f
3:30 10 11 mph 1015.6mb 56f 56f
3:24 10 11 mph 1015.6mb 56f 56f
3:18 10
mph
1015.6mb 56f 55f
3:12 10
mph
1015.9mb 56f 55f
3:06 9 11 mph 1016mb 56f 54f
3:00 10 11 mph 1016.2mb 56f 55f
2:54 10 11 mph 1016.2mb 56f 55f
2:48 10 11 mph 1016.1mb 56f 55f
2:42 11 15 mph 1016.1mb 56f 55f
2:36 14 15 mph 1016.1mb 56f 54f
2:30 15
mph
1016.2mb 56f 54f
2:24 13 14 mph 1016.3mb 56f 55f
2:18 11 13 mph 1016.2mb 56f 55f
2:12 13 14 mph 1016.1mb 56f 56f
2:06 13
mph
1016.1mb 55f 55f
2:00 11 13 mph 1016.2mb 55f 55f
1:54 9 10 mph 1016.4mb 55f 55f
1:48 9 10 mph 1016.5mb 55f -
1:42 9 10 mph 1016.4mb 55f -
1:36 8 9 mph 1016.5mb 55f -
1:30 7 8 mph 1016.4mb 55f 55f
1:24 7 8 mph 1016.4mb 55f 56f
1:18 7 8 mph 1016.5mb 55f 56f
1:12 8 9 mph 1016.6mb 55f 55f
1:06 8 11 mph 1016.7mb 55f 55f
1:00 11 14 mph 1016.6mb 55f 56f
12:54 13 14 mph 1016.5mb 55f 55f
12:48 13
mph
1016.4mb 55f 55f
12:42 10 11 mph 1016.4mb 55f 55f
12:36 8 10 mph 1016.5mb 55f 55f
12:30 8 9 mph 1016.6mb 55f 55f
12:24 8 9 mph 1016.7mb 54f 55f
12:18 8 9 mph 1016.7mb 54f 55f
12:12 8 9 mph 1016.7mb 53f 55f
12:06 8 13 mph 1016.6mb 53f 56f
12:00 13 14 mph 1016.4mb 53f 56f
ven. 04/28 11:54 11 14 mph 1016.3mb 53f 56f
11:48 14
mph
1016.2mb 53f 57f
11:42 14
mph
1016.1mb 53f 56f
11:36 14
mph
1016.1mb 54f 57f
11:30 14
mph
1016.2mb 54f 57f
11:24 14 15 mph 1016.2mb 53f 57f
11:18 13
mph
1016.2mb 53f 56f
11:12 13 14 mph 1016.3mb 53f 56f
11:06 13 14 mph 1016.4mb 53f 56f
11:00 11 13 mph 1016.5mb 53f 56f
10:54 11 13 mph 1016.5mb 52f 56f
10:48 11 13 mph - - -
10:42 13 14 mph 1016.7mb 52f 56f
10:36 13 14 mph 1016.5mb 52f 56f
10:30 10 14 mph 1016.6mb 52f 56f
10:24 11 14 mph 1016.7mb 52f 56f
10:18 13 14 mph 1016.7mb 52f 57f
10:12 11 14 mph 1016.8mb 52f 58f
10:06 11 13 mph 1016.7mb 52f 57f
10:00 10 13 mph 1016.6mb 52f 56f
9:54 10 13 mph 1016.6mb 52f 57f
9:48 10 11 mph 1016.7mb 52f 57f
9:42 7 9 mph 1016.8mb 52f 56f
9:36 7 11 mph 1016.8mb 52f 56f
9:30 11 13 mph 1016.6mb 52f 56f
9:24 13 14 mph 1016.5mb 52f 56f
9:18 14
mph
1016.3mb 52f 56f
9:12 10 11 mph 1016.2mb 52f 56f
9:06 11 14 mph 1016.3mb 52f 56f
9:00 13 14 mph 1016.3mb 52f 56f
8:48 6 10 mph 1016mb 51f 57f
8:42 7 10 mph 1015.9mb 51f 57f
8:36 6 9 mph 1015.8mb 51f 57f
8:30 9 11 mph 1015.6mb 51f 57f
8:24 11 13 mph 1015.6mb 50f 57f
8:18 13
mph
1015.4mb 50f 58f
8:12 7 11 mph 1015.3mb 49f 59f
8:06 9 11 mph 1015.2mb 49f 59f
8:00 10 15 mph 1014.9mb 49f 58f
7:48 13 15 mph 1014.9mb 49f 59f
7:42 15
mph
1014.9mb 49f 59f
7:36 15
mph
1014.6mb 49f 60f
7:30 15
mph
1014.5mb 49f 60f
7:24 15 18 mph 1014.5mb 49f 60f
7:18 17 18 mph 1014.6mb 49f 60f
7:12 14 18 mph 1014.5mb 49f 60f
7:06 17 20 mph 1014.5mb 49f 61f
7:00 18
mph
1014.3mb 50f 61f
6:54 16 20 mph 1014.3mb 51f 60f
6:48 20 21 mph 1014.3mb 51f 62f
6:42 16 17 mph 1014.3mb 51f 61f
6:36 16
mph
1014.3mb 51f 61f
6:30 13 17 mph 1014.4mb 51f 62f
6:24 15 20 mph 1014.4mb 51f 63f
6:18 18 20 mph 1014.3mb 51f 63f
6:12 20 24 mph 1014.2mb 51f 63f
6:06 24 25 mph 1014.2mb 51f 63f
6:00 20 22 mph 1014.2mb 51f 62f
5:48 22 25 mph 1014mb - -
5:42 23 25 mph 1013.9mb 53f 62f
5:36 20 22 mph 1013.8mb 55f 64f
5:30 18 22 mph 1013.8mb 56f 64f
5:24 18 20 mph 1013.7mb 56f 65f
5:18 15 17 mph 1013.7mb 55f 65f
5:12 11 14 mph 1013.6mb 54f 65f
5:06 5 7 mph 1013.8mb 53f 65f
5:00 1 8 mph 1013.8mb 51f 67f
4:54 9 13 mph 1013.7mb 51f 66f
4:48 8 10 mph 1013.8mb 51f 65f
4:42 7 10 mph 1013.8mb 52f 65f
4:36 8 9 mph 1013.7mb 52f 65f
4:30 9 10 mph 1013.7mb 52f 64f
4:24 8 9 mph 1014mb 53f 63f
4:18 7 10 mph 1014mb 53f 63f
4:12 9 10 mph 1014mb 53f 63f
4:06 10 11 mph 1014mb 54f 63f
4:00 10 13 mph 1014mb 54f 63f
3:54 11 13 mph 1014mb 54f 62f
3:48 11 14 mph 1014mb 55f 62f
3:42 14 16 mph 1014.1mb 55f 61f
3:36 16 17 mph 1014mb 55f 61f
3:30 14 16 mph 1013.8mb 55f 60f
3:24 15 17 mph 1014mb 55f 61f
3:18 15 16 mph 1014mb 55f 63f
3:12 13 17 mph 1013.9mb 56f 62f
3:06 17 18 mph 1013.9mb 56f 62f
3:00 17 20 mph 1014.1mb 56f 62f
2:54 18 20 mph 1014.3mb 56f 61f
2:48 18 20 mph 1014.4mb 56f 61f
2:42 17 18 mph 1014.5mb 56f 61f
2:36 15 16 mph 1014.5mb 56f 62f
2:30 16 17 mph 1014.6mb 56f 61f
2:24 10 13 mph 1014.7mb 56f 62f
2:18 7 9 mph 1014.9mb 56f 62f
2:12 7 8 mph 1015mb 56f 61f
2:06 3 7 mph 1015.1mb 56f 60f
2:00 7 8 mph 1015.1mb 56f 61f
1:54 7 8 mph 1015mb 56f 60f
1:48 8 9 mph 1014.9mb 56f 59f
1:42 8 9 mph 1014.9mb 56f 59f
1:36 7 8 mph 1014.8mb 56f 59f
1:30 7
mph
1014.8mb 56f 58f
1:24 8
mph
1014.8mb 56f 58f
1:18 8
mph
1014.9mb 56f 58f
1:12 7 8 mph 1014.9mb 55f 57f
1:06 9
mph
1014.9mb 55f 57f
1:00 7 8 mph 1014.8mb 53f 57f
12:54 7 8 mph 1014.8mb 52f 57f
12:48 7 10 mph 1014.8mb 52f 56f
12:42 6 10 mph 1014.8mb 52f 56f
12:36 10
mph
1014.8mb 52f 57f
12:30 10 13 mph 1014.8mb 53f 56f
12:24 10 11 mph 1015mb 53f 56f
12:18 7 8 mph 1015.1mb 53f 56f
12:12 7 8 mph 1015.2mb 53f 55f
12:06 7 8 mph 1015.1mb 53f 56f
12:00 6 7 mph 1015.3mb 53f 56f
11:54 6
mph
1015.2mb 53f 57f
11:48 6 7 mph 1015.2mb 53f 56f
11:42 7 10 mph 1015.3mb 53f 55f
11:36 10
mph
1015.2mb 53f 55f
11:30 8 9 mph 1015.2mb 53f 55f
11:24 8
mph
1015.2mb 52f 55f
11:18 7 9 mph 1015.4mb 52f 54f
11:12 8
mph
1015.4mb 52f 54f
11:06 6 7 mph 1015.2mb 52f 54f
11:00 7
mph
1015.2mb 52f 53f
10:54 5
mph
1015.2mb 52f 54f
10:48 3
mph
1015mb 52f 54f
10:42  -  3 mph 1015mb 52f 54f
10:36 2 3 mph 1014.9mb 52f 53f
10:30 5 7 mph 1015mb 52f 53f
10:24 7 8 mph 1015mb 51f 53f
10:18 7 9 mph - - -
10:12 7 8 mph 1014.8mb 51f 53f
10:06 7 9 mph 1014.7mb 51f 53f
10:00 9 11 mph 1014.7mb 50f 53f
9:54 10 11 mph 1014.7mb 50f 52f
9:48 9
mph
1014.8mb 50f 53f
9:42 7 8 mph 1014.7mb 50f 52f
9:36 7 8 mph 1014.7mb 50f 52f
9:30 8 10 mph 1014.6mb 51f 52f
9:24 8 9 mph 1014.6mb 51f 53f
9:18 8 9 mph 1014.9mb 51f 53f
9:12 7 8 mph 1015mb 51f 52f
9:06 7 9 mph 1014.8mb 50f 53f
9:00 9 13 mph 1014mb 50f 53f
8:54 13
mph
1014.3mb 51f 53f
8:48 9 10 mph 1014.4mb 51f 53f
8:42 6 7 mph 1014.7mb 51f 52f
8:36 7 8 mph 1014.9mb 51f 52f
8:30 9 10 mph 1015mb 51f 53f
8:24 7
mph
1014.9mb 50f 53f
8:18 8 9 mph 1014.9mb 50f 53f
8:12 8 9 mph 1014.8mb 50f 53f
8:06 9 14 mph 1014.8mb 50f 52f
8:00 9 10 mph 1014.9mb 49f 53f
7:30 9 11 mph 1014.3mb 49f 53f
7:24 8 9 mph 1014.2mb 50f 52f
7:18 7 9 mph 1014.2mb 51f 52f
7:12 8
mph
1014.4mb 51f 52f
7:06 9 10 mph 1014.5mb 51f 52f
7:00 10 16 mph 1014.6mb 52f 53f
6:54 15 16 mph 1014.5mb 52f 53f
6:48 9 10 mph 1014.3mb 52f 53f
6:42 7 8 mph 1014mb 52f 53f
6:36 8 10 mph 1013.8mb 52f 53f
6:30 10 11 mph 1013.8mb 52f 53f
6:24 8 9 mph 1013.6mb 52f 53f
6:18 9 11 mph 1013.5mb 52f 53f
6:12 11
mph
1013.7mb 52f 53f
6:06 9
mph
1013.6mb 52f 53f
6:00 9 10 mph 1013.4mb 52f 53f
5:54 9
mph
1013.2mb 52f 53f
5:48 8
mph
1013.2mb 52f 53f
5:42 8
mph
1013.4mb 52f 53f
5:36 8 9 mph 1013.4mb 52f 53f
5:30 8
mph
1013.3mb 52f 53f
5:24 7
mph
1013.4mb 52f 53f
5:18 6 7 mph 1013.4mb 52f 53f
5:12 6
mph
1013.4mb 52f 53f
5:06 5 6 mph 1013.4mb 52f 53f
5:00 6 7 mph 1013.2mb 52f 53f
4:54 8 10 mph 1013.3mb 52f 53f
4:48 9
mph
1013.2mb 52f 53f
4:42 7
mph
1013.4mb 52f 52f
4:36 6 7 mph 1013.3mb 52f 52f
4:30 7 8 mph 1013.3mb 52f 52f
4:24 8 9 mph 1013.4mb 52f 52f
4:18 9 11 mph 1013.4mb 52f 53f
4:12 11 14 mph 1013.3mb 52f 53f
4:06 13 14 mph 1013.4mb 52f 53f
4:00 11 13 mph 1013.3mb 52f 53f
3:54 10 11 mph 1013.5mb 52f 53f
3:48 10 11 mph 1013.5mb 52f 52f
3:42 10 11 mph 1013.5mb 52f 52f
3:36 6
mph
1013.5mb 52f 53f
3:30 3
mph
1013.4mb 52f 53f
3:24 3 6 mph 1013.3mb 52f 52f
3:18 6
mph
1013.4mb 53f 52f
3:12 6 7 mph 1013.5mb 53f 52f
3:06 6 9 mph 1013.3mb 53f 52f
3:00 8 10 mph 1013.4mb 53f 52f
2:54 7 9 mph 1013.3mb 53f 52f
2:48 7 8 mph 1013.4mb 53f 52f
2:42 5 6 mph 1013.5mb 53f 52f
2:36 6
mph
1013.6mb 53f 52f
2:30 6
mph
1013.6mb 53f 52f
2:24 6
mph
1013.6mb 53f 52f
2:18 5 7 mph 1013.6mb 53f 52f
2:12 7 8 mph 1013.6mb 53f 52f
2:06 6 7 mph 1013.8mb 53f 52f
2:00 7 9 mph 1013.8mb 53f 52f
1:54 8 9 mph 1013.8mb 53f 52f
1:48 9
mph
- - -
1:42 9 10 mph 1013.7mb 53f 52f
1:36 9 11 mph 1013.7mb 53f 52f
1:30 10 11 mph 1013.9mb 53f 52f
1:24 11
mph
1013.8mb 53f 52f
1:18 10 11 mph 1013.9mb 53f 52f
1:12 11
mph
1013.9mb 53f 52f
1:06 13 14 mph 1014.1mb 53f 52f
1:00 13 14 mph 1014.2mb 53f 52f
12:54 11 13 mph 1014.3mb 53f 52f
12:48 10 13 mph 1014.2mb 53f 53f
12:42 13 15 mph 1014.2mb 52f 53f
12:36 13 14 mph 1014.1mb 52f 53f
12:30 11 13 mph 1014.1mb 52f 53f
12:24 9 10 mph 1014.1mb 52f 53f
12:18 9 10 mph 1014.2mb 52f 53f
12:12 10 11 mph 1014.3mb 52f 53f
12:06 10 11 mph 1014.3mb 52f 53f
12:00 7 9 mph 1014.4mb 51f 53f
jeu. 04/27 11:54 6 7 mph 1014.3mb 51f 53f
11:48 7
mph
1014.2mb 51f 53f
11:42 6 7 mph 1014.2mb 51f 53f
11:36 6
mph
1014.2mb 51f 53f
11:30 5 6 mph 1014mb 51f 53f
11:24 3 5 mph 1014mb 51f 53f
11:18 5 6 mph 1014mb 51f 52f
11:12 6
mph
1014.1mb 51f 52f
11:06 6 7 mph 1014.2mb 51f 52f
11:00 6
mph
1014.3mb 51f 52f
10:54 6
mph
1014.3mb 51f 52f
10:48 5 6 mph 1014.3mb 51f 52f
10:42 6
mph
1014.3mb 51f 52f
10:36 6
mph
1014.3mb 51f 52f
10:30 6 7 mph 1014.4mb 51f 52f
10:24 7 9 mph 1014.5mb 51f 52f
10:18 8 11 mph 1014.5mb 50f 52f
10:12 11
mph
1014.6mb 50f 52f
10:06 11 13 mph 1014.5mb 50f 52f
10:00 13
mph
1014.4mb 50f 52f
9:54 10 11 mph 1014.4mb 51f 52f
9:48 13 14 mph 1014.3mb 51f 52f
9:42 13 14 mph 1014.4mb 51f 52f
9:36 14
mph
1014.3mb 51f 52f
9:30 13 15 mph 1014.4mb 51f 52f
9:24 14 15 mph 1014.4mb 51f 52f
9:18 13 15 mph 1014.4mb 51f 52f
9:12 11 15 mph 1014.5mb 51f 52f
9:06 14 15 mph 1014.5mb 51f 52f
9:00 11 14 mph - 51f 52f
8:48 9 11 mph 1014.3mb - -
8:42 10 11 mph 1014.2mb 51f 53f
8:36 9 10 mph 1014.1mb 51f 53f
8:30 9 11 mph 1014mb 51f 53f
8:24 11
mph
1013.9mb 51f 53f
8:18 10 11 mph 1013.9mb 51f 53f
8:12 9 10 mph 1013.9mb 51f 53f
8:06 8 10 mph 1013.9mb 51f 53f
8:00 9 10 mph 1013.7mb 51f 53f
7:48 7 8 mph 1013.5mb 50f 53f
7:42 5 7 mph 1013.6mb 50f 53f
7:36 7 9 mph 1013.5mb 50f 53f
7:30 9 13 mph 1013.5mb 50f 53f
7:24 11 17 mph 1013.4mb 50f 53f
7:18 15 17 mph 1013.2mb 49f 53f
7:12 18
mph
1013.2mb 49f 54f
7:06 16
mph
1013mb 49f 53f
7:00 6 8 mph 1013.1mb 49f 54f
6:48 8 11 mph 1013mb 49f 54f
6:42 11 14 mph 1013mb 49f 54f
6:36 14 15 mph 1013mb 49f 53f
6:30 14 16 mph 1013mb 48f 53f
6:24 14 16 mph 1012.9mb 48f 53f
6:18 15
mph
1012.9mb 48f 53f
6:12 15 17 mph 1012.9mb 49f 53f
6:06 17 18 mph 1012.8mb 49f 54f
6:00 17 18 mph 1012.8mb 49f 53f
5:48 16 17 mph 1012.8mb 49f 55f
5:42 14 15 mph 1012.7mb 49f 56f
5:36 13 14 mph 1012.7mb 49f 56f
5:30 14 17 mph 1012.7mb 49f 56f
5:24 17 18 mph 1012.5mb 49f 56f
5:18 15 16 mph 1012.7mb 50f 57f
5:12 14
mph
1012.7mb 52f 57f
5:06 15
mph
1012.7mb 52f 56f
5:00 15 18 mph 1012.7mb 52f 56f
4:54 17 18 mph 1012.8mb 52f 56f
4:48 15 16 mph 1012.8mb 52f 56f
4:42 11 13 mph 1012.8mb 52f 56f
4:36 9 10 mph 1012.8mb 51f 56f
4:30 8 9 mph 1012.8mb 51f 56f
4:24 9 10 mph 1012.8mb 51f 57f
4:18 8 9 mph 1012.7mb 51f 56f
4:12 9
mph
1012.7mb 51f 56f
4:06 9
mph
1012.6mb 50f 56f
4:00 8 10 mph 1012.8mb 50f 56f
3:54 10
mph
1012.8mb 50f 56f
3:48 10 11 mph 1012.8mb 50f 56f
3:42 10 11 mph 1012.9mb 50f 56f
3:36 11
mph
1012.9mb 50f 56f
3:30 11 13 mph 1012.9mb 51f 56f
3:24 11 13 mph 1013mb 51f 56f
3:18 10 13 mph 1013mb 51f 56f
3:12 9 10 mph 1013mb 51f 56f
3:06 8 9 mph 1013.1mb 51f 56f
3:00 6 8 mph 1013.2mb 51f 56f
2:54 5 6 mph 1013.3mb 52f 56f
1:42 14 15 mph 1013.2mb 53f 55f
1:36 15 16 mph 1013.2mb 53f 54f
1:30 16 18 mph 1013.2mb 53f 54f
1:24 17
mph
1013.2mb 53f 54f
1:18 16 17 mph 1013.2mb 53f 54f
1:12 15 17 mph 1013.2mb 53f 54f
1:06 16 17 mph 1013.2mb 53f 54f
1:00 14 16 mph 1013mb 53f 54f
12:48 7
mph
1013mb 54f 58f
12:42 6
mph
1012.9mb 53f 58f
12:36 6
mph
1013mb 53f 58f
12:30 6
mph
1013mb 53f 59f
12:24 6 7 mph 1013.1mb 53f 58f
12:18 7 8 mph 1013.1mb 53f 57f
12:12 7 8 mph 1013.2mb 53f 57f
12:06 7 8 mph 1013.3mb 53f 57f
12:00 6 7 mph 1013.3mb 53f 57f
11:54 6
mph
1013.3mb 53f 57f
11:48 3 5 mph 1013.2mb 53f 57f
11:42 2 3 mph 1013.2mb 53f 57f
11:36  -  mph 1013.2mb 53f 57f
11:30  -  2 mph 1013.2mb 53f 57f
11:24 1 3 mph 1013.2mb 53f 57f
11:18 2 3 mph 1013.3mb 52f 57f
11:12 2 3 mph 1013.4mb 52f 60f
11:06 1 2 mph 1013.4mb 52f 59f
11:00  -  1 mph 1013.4mb 51f 59f
10:54  -  1 mph 1013.5mb 51f 58f
10:48 1 2 mph 1013.4mb 51f 57f
10:42 2 3 mph 1013.4mb 51f 57f
10:36 2
mph
1013.4mb 50f 56f
10:30  -  2 mph 1013.3mb 50f 56f
10:24  -  3 mph 1013.3mb 50f 55f
10:18 3 5 mph 1013.3mb 50f 55f
10:12 3 5 mph 1013.2mb 50f 56f
10:06 3
mph
1013.3mb 50f 55f
10:00 3
mph
1013.4mb 50f 55f
9:54 2 3 mph 1013.3mb 49f 55f
9:48 3
mph
1013.3mb 49f 54f
9:42 3
mph
1013.3mb 49f 54f
9:36 3
mph
1013.2mb 49f 55f
9:30 3
mph
1013.3mb 49f 54f
9:24 3
mph
1013.2mb 49f 55f
9:18 3 5 mph 1013.2mb 49f 54f
9:12 5
mph
1013.2mb 49f 54f
9:06 5
mph
1013.3mb 49f 53f
9:00 3 5 mph 1013.3mb 49f 53f
8:54 3 5 mph 1013.3mb 49f 53f
8:48 5 6 mph 1013.3mb 49f 53f
8:42 6 7 mph 1013.3mb 49f 53f
8:36 7 8 mph 1013.2mb 49f 53f
8:30 7 8 mph 1013.1mb 49f 53f
8:24 7 8 mph 1013.2mb 49f 52f
8:18 8 9 mph 1013.2mb 49f 52f
8:12 9
mph
1013.1mb 49f 52f
8:06 9 10 mph 1013mb 49f 53f
8:00 8 10 mph 1012.9mb 49f 53f
7:48 7
mph
1012.9mb 49f 53f
7:42 5 6 mph 1012.7mb 49f 53f
7:36 6 7 mph 1012.6mb 49f 53f
7:30 6 8 mph 1012.5mb 49f 53f
7:24 7 8 mph 1012.4mb 49f 53f
7:18 7 8 mph 1012.2mb 49f 53f
7:12 7 8 mph 1012.2mb 49f 53f
7:06 7 8 mph 1012.2mb 49f 53f
7:00 7 8 mph 1012.1mb 49f 53f
6:54 6
mph
1012.1mb 49f 53f
6:48 5
mph
1012.1mb 49f 53f
6:42 3 5 mph 1012.1mb 49f 53f
6:36 6
mph
1011.9mb 49f 53f
6:30 6 7 mph 1011.8mb 49f 53f
6:24 7
mph
1011.8mb 49f 53f
6:18 7 8 mph 1011.8mb 49f 53f
6:12 7 8 mph 1011.8mb 49f 53f